Terminal Aerodrome Forecast
Issued by NWS Twin Cities, MN

Home | Current Version | Previous Version | Text Only | Print | Product List | Glossary On
Versions: 1 2 3 4 5 6 7 8 9 10 11 12 13 14 15 16 17 18 19 20 21 22 23
869
FTUS43 KMPX 221122
TAFSTC
TAF
KSTC 221122Z 2212/2312 35007KT P6SM BKN110
     FM222100 35007KT P6SM SCT025 BKN035
     FM230000 33008KT P6SM VCSH BKN025
     FM230300 34009KT P6SM OVC006
     FM231000 36008KT P6SM BKN045=

USA.gov is the U.S. government's official web portal to all federal, state and local government web resources and services.